Schley, Wisconsin
Current Conditions -  °F | °C
As of 4:55 PM on Tuesday 21 Oct 2014 (Local Time) from KRRL Reporting Station
Clear Clear  
Wind Chill: 51°   Ceiling: Unl
Heat Index: 51°   Visibility: 10mi
Dew Point: 34°   Wind: 0mph
Humidity: 52%   Direction: NA
Pressure: 30.22"   Gusts: NA
Location:  45.2167°N, 89.8732°W
Report Text: KRRL 212155Z AUTO 00000KT 10SM CLR 11/01 A3022 RMK AO2 T01070011
Loading
Personal Weather Stations






























Interactive Weather Map
Tropical Storm Tracking
New forecast layout! Learn more

10-Day Weather Forecast

Advertisements
Track Severe Weather on mobile